Time;durP1;ratioP1;P1;durP2;ratioP2;P2;SDS_P1;SDS_P2;PMS_P1;PMS_P2;Temp;Humidity;BMP_temperature;BMP_pressure;BME280_temperature;BME280_humidity;BME280_pressure;Samples;Min_cycle;Max_cycle;Signal;HPM_P1;HPM_P2
2024/01/15 00:00:51;;;;;;;5.63;3.57;;;;;;;2.26;100.00;98820.91;5056565;28;20521;-67
2024/01/15 00:03:18;;;;;;;5.90;1.77;;;;;;;2.27;100.00;98814.47;5056046;28;20894;-67
2024/01/15 00:05:46;;;;;;;5.53;2.20;;;;;;;2.27;100.00;98813.69;5056095;28;20496;-67
2024/01/15 00:08:12;;;;;;;5.30;2.67;;;;;;;2.24;100.00;98801.69;5056050;28;20431;-67
2024/01/15 00:10:40;;;;;;;1.63;0.70;;;;;;;2.22;100.00;98805.75;5056368;28;20473;-67
2024/01/15 00:13:07;;;;;;;4.53;2.30;;;;;;;2.23;100.00;98792.09;5055839;28;20462;-67
2024/01/15 00:15:33;;;;;;;3.93;2.03;;;;;;;2.24;100.00;98785.66;5055918;28;20529;-67
2024/01/15 00:18:00;;;;;;;2.83;1.53;;;;;;;2.20;100.00;98794.53;5055781;28;20525;-67
2024/01/15 00:20:26;;;;;;;4.07;1.97;;;;;;;2.22;100.00;98776.38;5056103;28;20438;-67
2024/01/15 00:22:54;;;;;;;2.43;1.53;;;;;;;2.27;100.00;98774.41;5055348;28;21016;-67
2024/01/15 00:25:21;;;;;;;1.50;0.40;;;;;;;2.35;100.00;98770.28;5056049;28;20529;-67
2024/01/15 00:27:48;;;;;;;7.70;2.50;;;;;;;2.33;100.00;98774.31;5055389;28;20442;-67
2024/01/15 00:30:15;;;;;;;2.53;1.27;;;;;;;2.37;100.00;98760.09;5055311;28;20438;-67
2024/01/15 00:32:41;;;;;;;4.43;3.30;;;;;;;2.40;100.00;98758.72;5055385;28;20490;-67
2024/01/15 00:35:09;;;;;;;2.83;1.93;;;;;;;2.35;100.00;98756.13;5055250;28;20469;-67
2024/01/15 00:37:35;;;;;;;1.80;0.80;;;;;;;2.37;100.00;98749.41;5055389;28;20504;-67
2024/01/15 00:40:04;;;;;;;1.90;0.87;;;;;;;2.38;100.00;98755.53;5054980;28;20985;-66
2024/01/15 00:42:30;;;;;;;1.70;0.73;;;;;;;2.36;100.00;98739.00;5055379;28;20461;-67
2024/01/15 00:44:57;;;;;;;2.30;1.30;;;;;;;2.42;100.00;98753.88;5055929;28;20442;-67
2024/01/15 00:47:24;;;;;;;1.50;0.30;;;;;;;2.43;100.00;98752.78;5054650;28;20450;-67
2024/01/15 00:49:51;;;;;;;1.90;0.90;;;;;;;2.38;100.00;98747.50;5055235;28;20507;-66
2024/01/15 00:52:17;;;;;;;4.33;2.60;;;;;;;2.35;100.00;98745.44;5055527;28;20462;-66
2024/01/15 00:54:44;;;;;;;2.10;0.60;;;;;;;2.40;100.00;98748.81;5055489;28;20434;-67
2024/01/15 00:57:12;;;;;;;1.83;0.70;;;;;;;2.38;100.00;98742.97;5055331;28;20495;-67
2024/01/15 00:59:39;;;;;;;1.97;1.03;;;;;;;2.36;100.00;98737.13;5054723;28;20488;-66
2024/01/15 01:02:05;;;;;;;2.00;1.07;;;;;;;2.32;100.00;98743.34;5055138;28;20458;-67
2024/01/15 01:04:32;;;;;;;4.23;2.93;;;;;;;2.19;100.00;98748.34;5054998;28;21076;-67
2024/01/15 01:06:59;;;;;;;1.90;1.00;;;;;;;2.09;100.00;98747.72;5055030;28;20465;-67
2024/01/15 01:09:29;;;;;;;5.53;2.10;;;;;;;2.00;100.00;98745.69;5054841;28;20438;-67
2024/01/15 01:11:55;;;;;;;7.33;1.47;;;;;;;1.89;100.00;98740.78;5055037;28;20473;-67
2024/01/15 01:14:23;;;;;;;1.60;0.40;;;;;;;1.84;100.00;98738.19;5054958;28;20538;-67
2024/01/15 01:16:50;;;;;;;2.60;1.37;;;;;;;1.88;100.00;98741.88;5055083;28;20576;-67
2024/01/15 01:19:17;;;;;;;1.70;0.50;;;;;;;1.83;100.00;98745.41;5054564;28;20560;-67
2024/01/15 01:21:43;;;;;;;3.00;0.67;;;;;;;1.89;100.00;98748.81;5054252;28;20984;-67
2024/01/15 01:24:10;;;;;;;6.40;1.53;;;;;;;1.92;100.00;98742.91;5055201;28;20897;-67
2024/01/15 01:26:37;;;;;;;1.47;0.30;;;;;;;1.91;100.00;98752.78;5054519;28;20439;-67
2024/01/15 01:29:03;;;;;;;3.60;0.70;;;;;;;1.87;100.00;98743.75;5054533;28;20442;-67
2024/01/15 01:31:31;;;;;;;1.87;0.80;;;;;;;1.87;100.00;98753.66;5054327;28;20537;-67
2024/01/15 01:33:58;;;;;;;1.60;0.53;;;;;;;1.74;100.00;98739.94;5054817;28;20473;-67
2024/01/15 01:36:24;;;;;;;1.80;0.60;;;;;;;1.74;100.00;98737.25;5055093;28;20824;-67
2024/01/15 01:38:51;;;;;;;4.67;1.00;;;;;;;1.68;100.00;98741.09;5054133;28;20482;-67
2024/01/15 01:41:18;;;;;;;2.30;0.93;;;;;;;1.67;100.00;98741.38;5053994;28;20851;-67
2024/01/15 01:43:44;;;;;;;1.60;0.70;;;;;;;1.65;100.00;98728.31;5054311;28;20444;-67
2024/01/15 01:46:11;;;;;;;2.23;1.03;;;;;;;1.59;100.00;98734.78;5054271;28;20511;-67
2024/01/15 01:48:40;;;;;;;5.20;1.87;;;;;;;1.65;100.00;98730.19;5054230;28;20513;-67
2024/01/15 01:51:07;;;;;;;7.77;1.33;;;;;;;1.71;100.00;98737.84;5054419;28;20470;-68
2024/01/15 01:53:37;;;;;;;6.23;1.73;;;;;;;1.70;100.00;98735.47;5054398;28;20444;-68
2024/01/15 01:56:04;;;;;;;1.50;0.40;;;;;;;1.75;100.00;98728.16;5054368;28;20442;-69
2024/01/15 01:58:32;;;;;;;1.50;0.40;;;;;;;1.75;100.00;98709.50;5053875;28;20482;-66
2024/01/15 02:00:59;;;;;;;2.43;1.17;;;;;;;1.69;100.00;98697.31;5054047;28;20434;-71
2024/01/15 02:03:27;;;;;;;2.80;1.30;;;;;;;1.70;100.00;98709.56;5054019;28;20469;-67
2024/01/15 02:05:56;;;;;;;3.53;2.20;;;;;;;1.73;100.00;98710.88;5054193;28;20537;-67
2024/01/15 02:08:22;;;;;;;2.10;1.53;;;;;;;1.70;100.00;98708.78;5054294;28;20529;-67
2024/01/15 02:10:49;;;;;;;3.33;1.10;;;;;;;1.67;100.00;98699.47;5053724;28;20453;-68
2024/01/15 02:13:16;;;;;;;4.37;1.03;;;;;;;1.73;100.00;98698.31;5053626;28;20532;-67
2024/01/15 02:15:42;;;;;;;1.60;0.50;;;;;;;1.76;100.00;98707.59;5053830;28;20922;-68
2024/01/15 02:18:09;;;;;;;2.10;1.30;;;;;;;1.79;100.00;98698.25;5053580;28;20532;-68
2024/01/15 02:20:36;;;;;;;3.10;1.67;;;;;;;1.77;100.00;98696.66;5053318;28;20521;-68
2024/01/15 02:23:10;;;;;;;1.83;1.00;;;;;;;1.79;100.00;98692.91;5053521;28;20890;-68
2024/01/15 02:25:37;;;;;;;2.70;1.43;;;;;;;1.80;100.00;98691.81;5053580;28;20427;-68
2024/01/15 02:28:05;;;;;;;1.50;0.30;;;;;;;1.79;100.00;98691.03;5054098;28;20449;-68
2024/01/15 02:30:32;;;;;;;2.80;1.60;;;;;;;1.74;100.00;98689.22;5053463;28;20442;-67
2024/01/15 02:32:59;;;;;;;1.50;0.30;;;;;;;1.76;100.00;98692.38;5053503;28;20468;-67
2024/01/15 02:35:25;;;;;;;1.60;0.50;;;;;;;1.75;100.00;98693.47;5053724;28;20443;-67
2024/01/15 02:37:52;;;;;;;2.10;0.97;;;;;;;1.73;100.00;98692.19;5053595;28;20474;-67
2024/01/15 02:40:20;;;;;;;2.30;1.10;;;;;;;1.81;100.00;98688.84;5053329;28;20456;-68
2024/01/15 02:42:47;;;;;;;1.50;0.40;;;;;;;1.75;100.00;98687.34;5053349;28;20502;-68
2024/01/15 02:45:13;;;;;;;1.93;1.23;;;;;;;1.69;100.00;98688.50;5053494;28;20811;-67
2024/01/15 02:47:40;;;;;;;1.90;0.80;;;;;;;1.66;100.00;98686.41;5053331;28;20472;-67
2024/01/15 02:50:07;;;;;;;1.83;0.83;;;;;;;1.73;100.00;98679.66;5053419;28;20462;-68
2024/01/15 02:52:33;;;;;;;1.70;0.73;;;;;;;1.74;100.00;98685.78;5053247;28;20466;-67
2024/01/15 02:55:00;;;;;;;2.43;0.50;;;;;;;1.81;100.00;98672.84;5053499;28;20779;-67
2024/01/15 02:57:28;;;;;;;1.90;0.70;;;;;;;1.81;100.00;98680.06;5053333;28;20529;-67
2024/01/15 02:59:54;;;;;;;1.47;0.30;;;;;;;1.87;100.00;98670.91;5052940;28;20906;-67
2024/01/15 03:02:21;;;;;;;4.00;1.10;;;;;;;1.92;100.00;98673.50;5053476;28;20640;-67
2024/01/15 03:04:48;;;;;;;4.50;1.57;;;;;;;1.84;100.00;98682.16;5053251;28;20434;-67
2024/01/15 03:07:14;;;;;;;2.20;0.87;;;;;;;1.96;100.00;98674.50;5053194;28;20442;-67
2024/01/15 03:09:41;;;;;;;1.90;0.93;;;;;;;1.94;100.00;98677.44;5053479;28;20431;-67
2024/01/15 03:12:08;;;;;;;1.60;0.60;;;;;;;1.88;100.00;98678.59;5055775;28;20493;-67
2024/01/15 03:14:36;;;;;;;2.37;1.00;;;;;;;1.94;100.00;98664.09;5057107;28;20481;-67
2024/01/15 03:17:03;;;;;;;1.70;0.63;;;;;;;1.97;100.00;98673.41;5057431;28;20465;-68
2024/01/15 03:19:30;;;;;;;1.67;0.50;;;;;;;2.00;100.00;98667.50;5057292;28;20539;-67
2024/01/15 03:21:57;;;;;;;1.90;0.90;;;;;;;1.99;100.00;98663.22;5056812;28;20500;-68
2024/01/15 03:24:23;;;;;;;2.07;1.30;;;;;;;1.99;100.00;98656.03;5057120;28;20482;-67
2024/01/15 03:26:50;;;;;;;2.50;0.80;;;;;;;2.04;100.00;98660.47;5056927;28;20473;-67
2024/01/15 03:29:16;;;;;;;2.17;0.60;;;;;;;2.06;100.00;98660.97;5056802;28;20438;-67
2024/01/15 03:31:44;;;;;;;2.13;1.13;;;;;;;2.08;100.00;98668.69;5056357;28;20458;-67
2024/01/15 03:34:12;;;;;;;2.30;1.47;;;;;;;2.04;100.00;98660.47;5056702;28;20525;-67
2024/01/15 03:36:39;;;;;;;2.93;1.90;;;;;;;2.07;100.00;98651.06;5056425;28;20880;-67
2024/01/15 03:39:05;;;;;;;4.00;0.50;;;;;;;2.06;100.00;98652.97;5056573;28;20521;-67
2024/01/15 03:41:32;;;;;;;2.40;1.50;;;;;;;2.07;100.00;98659.88;5056537;28;20512;-67
2024/01/15 03:43:59;;;;;;;1.70;0.77;;;;;;;2.09;100.00;98648.94;5056858;28;20845;-67
2024/01/15 03:46:25;;;;;;;1.60;0.53;;;;;;;2.10;100.00;98647.84;5056445;28;20776;-67
2024/01/15 03:48:54;;;;;;;2.33;1.00;;;;;;;2.15;100.00;98637.84;5056218;28;20465;-67
2024/01/15 03:51:21;;;;;;;1.60;0.40;;;;;;;2.17;100.00;98633.03;5056606;28;20855;-66
2024/01/15 03:53:47;;;;;;;1.60;0.60;;;;;;;2.19;100.00;98632.72;5056145;28;20926;-67
2024/01/15 03:56:13;;;;;;;5.40;1.17;;;;;;;2.14;100.00;98641.63;5056673;28;20481;-66
2024/01/15 03:58:40;;;;;;;1.87;0.80;;;;;;;2.15;100.00;98624.50;5056135;28;20510;-67
2024/01/15 04:01:09;;;;;;;1.50;0.30;;;;;;;2.17;100.00;98627.69;5056160;28;20277;-66
2024/01/15 04:03:35;;;;;;;1.70;0.70;;;;;;;2.17;100.00;98630.34;5056091;28;21033;-67
2024/01/15 04:06:04;;;;;;;1.70;0.60;;;;;;;2.16;100.00;98622.63;5056138;28;20541;-67
2024/01/15 04:08:31;;;;;;;1.70;0.67;;;;;;;2.11;100.00;98612.81;5056087;28;20442;-67
2024/01/15 04:10:57;;;;;;;1.43;0.30;;;;;;;2.09;100.00;98592.84;5056339;28;20470;-67
2024/01/15 04:13:24;;;;;;;2.37;1.07;;;;;;;2.10;100.00;98605.09;5055925;28;20505;-66
2024/01/15 04:15:50;;;;;;;1.47;0.40;;;;;;;2.13;100.00;98610.66;5056024;28;20874;-66
2024/01/15 04:18:17;;;;;;;2.03;0.73;;;;;;;2.20;100.00;98623.63;5055605;28;20492;-67
2024/01/15 04:20:44;;;;;;;1.93;0.97;;;;;;;2.17;100.00;98616.19;5055824;28;20485;-67
2024/01/15 04:23:12;;;;;;;1.90;0.90;;;;;;;2.19;100.00;98625.50;5054525;28;20502;-67
2024/01/15 04:25:42;;;;;;;4.73;0.50;;;;;;;2.21;100.00;98606.50;5055426;28;20521;-67
2024/01/15 04:28:09;;;;;;;2.03;0.70;;;;;;;2.21;100.00;98620.66;5055889;28;20442;-66
2024/01/15 04:30:35;;;;;;;2.23;0.70;;;;;;;2.26;100.00;98633.94;5055339;28;20465;-67
2024/01/15 04:33:02;;;;;;;1.60;0.57;;;;;;;2.31;100.00;98637.59;5055955;28;20537;-67
2024/01/15 04:35:29;;;;;;;1.43;0.30;;;;;;;2.33;100.00;98616.72;5055544;28;20450;-67
2024/01/15 04:37:55;;;;;;;2.43;1.20;;;;;;;2.30;99.60;98615.41;5055545;28;20511;-67
2024/01/15 04:40:23;;;;;;;1.50;0.50;;;;;;;2.26;99.36;98615.22;5055615;28;20529;-67
2024/01/15 04:42:50;;;;;;;1.80;0.60;;;;;;;2.24;100.00;98601.38;5055329;28;20830;-68
2024/01/15 04:45:18;;;;;;;1.60;0.50;;;;;;;2.23;100.00;98607.00;5055409;28;20469;-68
2024/01/15 04:47:44;;;;;;;1.60;0.50;;;;;;;2.30;100.00;98598.59;5055154;28;20450;-68
2024/01/15 04:50:11;;;;;;;3.50;1.80;;;;;;;2.23;100.00;98604.34;5055238;28;20431;-68
2024/01/15 04:52:38;;;;;;;1.50;0.40;;;;;;;2.23;99.86;98597.13;5054872;28;20455;-69
2024/01/15 04:55:05;;;;;;;1.70;0.70;;;;;;;2.26;99.95;98595.75;5054781;28;20438;-68
2024/01/15 04:57:33;;;;;;;2.03;0.60;;;;;;;2.30;99.80;98599.38;5055131;28;20465;-68
2024/01/15 04:59:59;;;;;;;1.70;0.60;;;;;;;2.36;99.31;98597.44;5055018;28;20485;-68
2024/01/15 05:02:26;;;;;;;1.80;0.60;;;;;;;2.41;98.06;98590.09;5054662;28;20458;-68
2024/01/15 05:04:53;;;;;;;2.00;0.97;;;;;;;2.41;97.89;98590.09;5055007;28;20537;-68
2024/01/15 05:07:19;;;;;;;2.33;1.47;;;;;;;2.41;98.35;98584.75;5054965;28;20848;-68
2024/01/15 05:09:46;;;;;;;2.20;0.50;;;;;;;2.43;98.18;98589.78;5054984;28;20518;-68
2024/01/15 05:12:13;;;;;;;1.60;0.60;;;;;;;2.44;97.74;98584.19;5054898;28;20490;-68
2024/01/15 05:14:41;;;;;;;1.50;0.40;;;;;;;2.41;98.40;98586.66;5054795;28;20944;-69
2024/01/15 05:17:07;;;;;;;1.77;0.87;;;;;;;2.44;98.11;98586.84;5054820;28;20466;-69
2024/01/15 05:19:34;;;;;;;1.50;0.40;;;;;;;2.44;98.58;98600.22;5054634;28;20492;-68
2024/01/15 05:22:01;;;;;;;1.80;0.83;;;;;;;2.47;97.86;98588.91;5054769;28;20454;-68
2024/01/15 05:24:27;;;;;;;1.50;0.30;;;;;;;2.48;98.06;98563.00;5054316;28;20526;-68
2024/01/15 05:26:54;;;;;;;1.50;0.50;;;;;;;2.51;97.45;98581.09;5055109;28;20440;-68
2024/01/15 05:29:20;;;;;;;3.20;1.23;;;;;;;2.52;96.65;98585.34;5054498;28;20521;-69
2024/01/15 05:31:48;;;;;;;1.60;0.40;;;;;;;2.49;96.64;98551.22;5054803;28;20543;-69
2024/01/15 05:34:14;;;;;;;1.60;0.57;;;;;;;2.45;97.26;98571.59;5054581;28;20469;-69
2024/01/15 05:36:41;;;;;;;1.73;0.60;;;;;;;2.50;96.22;98587.53;5054467;28;20497;-69
2024/01/15 05:39:09;;;;;;;1.50;0.40;;;;;;;2.51;96.46;98578.44;5076187;22;20239;-69
2024/01/15 05:41:35;;;;;;;3.30;0.57;;;;;;;2.57;95.81;98598.63;5073883;28;20545;-69
2024/01/15 05:44:02;;;;;;;1.50;0.40;;;;;;;2.65;95.30;98573.84;5074381;28;20515;-70
2024/01/15 05:46:28;;;;;;;1.50;0.40;;;;;;;2.62;96.45;98571.81;5073856;28;20441;-69
2024/01/15 05:48:56;;;;;;;1.53;0.43;;;;;;;2.55;98.12;98584.75;5074291;28;20444;-70
2024/01/15 05:51:23;;;;;;;1.50;0.40;;;;;;;2.51;99.02;98605.94;5073907;28;20461;-69
2024/01/15 05:53:50;;;;;;;1.50;0.50;;;;;;;2.50;99.63;98572.28;5074847;28;20541;-69
2024/01/15 05:56:16;;;;;;;1.50;0.30;;;;;;;2.43;100.00;98579.91;5074520;28;20532;-69
2024/01/15 05:58:43;;;;;;;1.50;0.30;;;;;;;2.37;100.00;98569.63;5074433;28;20468;-69
2024/01/15 06:01:10;;;;;;;1.43;0.30;;;;;;;2.47;100.00;98588.91;5074013;28;20489;-69
2024/01/15 06:03:37;;;;;;;1.40;0.30;;;;;;;2.46;100.00;98587.34;5074221;28;20449;-69
2024/01/15 06:06:05;;;;;;;1.53;0.40;;;;;;;2.44;100.00;98568.16;5073661;28;21008;-69
2024/01/15 06:08:32;;;;;;;1.50;0.30;;;;;;;2.49;100.00;98559.25;5074147;28;20854;-69
2024/01/15 06:10:59;;;;;;;1.47;0.40;;;;;;;2.46;100.00;98565.16;5073692;28;20442;-69
2024/01/15 06:13:25;;;;;;;1.50;0.40;;;;;;;2.48;99.98;98576.38;5073751;28;20551;-69
2024/01/15 06:15:52;;;;;;;1.93;0.50;;;;;;;2.44;99.60;98567.34;5073874;28;20524;-69
2024/01/15 06:18:18;;;;;;;1.50;0.40;;;;;;;2.51;98.58;98573.06;5073946;28;20532;-69
2024/01/15 06:20:45;;;;;;;1.60;0.63;;;;;;;2.48;99.14;98568.34;5073049;28;20484;-69
2024/01/15 06:23:13;;;;;;;1.63;0.53;;;;;;;2.52;99.11;98563.97;5073378;28;20462;-69
2024/01/15 06:25:40;;;;;;;1.50;0.30;;;;;;;2.50;99.49;98566.94;5073746;28;20437;-70
2024/01/15 06:28:06;;;;;;;1.53;0.47;;;;;;;2.48;99.90;98561.13;5073749;28;20441;-69
2024/01/15 06:30:33;;;;;;;2.27;0.60;;;;;;;2.46;100.00;98575.84;5073854;28;20470;-69
2024/01/15 06:33:00;;;;;;;1.43;0.40;;;;;;;2.51;100.00;98557.84;5073632;28;20552;-69
2024/01/15 06:35:26;;;;;;;1.40;0.30;;;;;;;2.54;100.00;98564.47;5073509;28;20536;-69
2024/01/15 06:37:53;;;;;;;1.50;0.50;;;;;;;2.56;100.00;98551.59;5073559;28;20443;-69
2024/01/15 06:40:21;;;;;;;1.40;0.30;;;;;;;2.56;100.00;98559.63;5073248;28;20485;-69
2024/01/15 06:42:47;;;;;;;1.93;0.67;;;;;;;2.53;100.00;98550.31;5073706;28;20457;-69
2024/01/15 06:45:14;;;;;;;1.60;0.50;;;;;;;2.49;100.00;98552.00;5073430;28;20445;-69
2024/01/15 06:47:41;;;;;;;1.50;0.40;;;;;;;2.53;99.33;98582.41;5077290;28;20805;-69
2024/01/15 06:50:09;;;;;;;1.50;0.30;;;;;;;2.61;99.28;98578.25;5077348;28;20448;-69
2024/01/15 06:52:35;;;;;;;1.50;0.30;;;;;;;2.59;98.54;98563.59;5077096;28;20980;-69
2024/01/15 06:55:02;;;;;;;2.63;1.03;;;;;;;2.58;98.02;98570.03;5077462;28;20472;-69
2024/01/15 06:57:30;;;;;;;1.50;0.43;;;;;;;2.59;97.46;98553.69;5077867;28;20449;-69
2024/01/15 06:59:57;;;;;;;1.50;0.40;;;;;;;2.53;97.38;98582.41;5077418;28;20477;-68
2024/01/15 07:02:24;;;;;;;1.80;0.70;;;;;;;2.60;96.98;98592.66;5077229;28;20534;-69
2024/01/15 07:04:50;;;;;;;3.67;1.03;;;;;;;2.70;95.54;98599.69;5076972;28;20881;-69
2024/01/15 07:07:17;;;;;;;6.23;0.60;;;;;;;2.77;94.77;98589.41;5077193;28;20524;-69
2024/01/15 07:09:43;;;;;;;2.57;0.90;;;;;;;2.77;95.09;98594.75;5077092;28;20499;-70
2024/01/15 07:12:10;;;;;;;2.80;0.80;;;;;;;2.77;94.75;98592.88;5076545;28;20561;-70
2024/01/15 07:14:38;;;;;;;2.07;0.80;;;;;;;2.77;93.70;98592.06;5077017;28;20803;-70
2024/01/15 07:17:05;;;;;;;1.50;0.40;;;;;;;2.78;93.44;98594.44;5076724;28;20482;-70
2024/01/15 07:19:31;;;;;;;1.50;0.47;;;;;;;2.85;93.05;98617.31;5076752;28;20483;-70
2024/01/15 07:21:58;;;;;;;1.50;0.30;;;;;;;2.89;93.17;98619.09;5076950;28;20547;-70
2024/01/15 07:24:24;;;;;;;1.47;0.30;;;;;;;2.93;92.86;98605.94;5076898;28;20863;-70
2024/01/15 07:26:51;;;;;;;3.00;0.67;;;;;;;2.88;93.48;98616.72;5077476;28;20448;-70
2024/01/15 07:29:18;;;;;;;2.20;1.00;;;;;;;2.99;91.35;98618.09;5076810;28;20519;-70
2024/01/15 07:31:50;;;;;;;4.43;0.60;;;;;;;2.95;91.70;98641.16;5076325;28;20536;-70
2024/01/15 07:34:17;;;;;;;1.47;0.30;;;;;;;2.97;91.95;98636.34;5076711;28;20468;-70
2024/01/15 07:36:45;;;;;;;1.50;0.30;;;;;;;3.02;91.26;98628.19;5076618;28;20485;-71
2024/01/15 07:39:12;;;;;;;7.93;0.50;;;;;;;3.00;91.89;98633.03;5076351;28;20453;-70
2024/01/15 07:41:38;;;;;;;1.40;0.30;;;;;;;2.97;92.21;98628.31;5076915;28;20485;-71
2024/01/15 07:44:06;;;;;;;1.50;0.30;;;;;;;2.91;91.87;98654.34;5076464;28;20479;-70
2024/01/15 07:46:32;;;;;;;1.47;0.30;;;;;;;2.90;92.13;98644.75;5076791;28;20528;-70
2024/01/15 07:49:00;;;;;;;1.50;0.30;;;;;;;2.93;92.21;98654.06;5076509;28;20436;-70
2024/01/15 07:51:27;;;;;;;1.47;0.37;;;;;;;2.97;91.75;98649.69;5076681;28;20495;-70
2024/01/15 07:53:55;;;;;;;1.70;0.43;;;;;;;2.95;91.91;98649.19;5076065;28;20963;-70
2024/01/15 07:56:22;;;;;;;1.40;0.30;;;;;;;2.97;92.04;98639.00;5076139;28;20532;-70
2024/01/15 07:58:48;;;;;;;1.97;0.70;;;;;;;2.93;92.63;98646.03;5075736;28;20933;-70
2024/01/15 08:01:15;;;;;;;1.43;0.40;;;;;;;2.89;94.14;98645.03;5075932;28;20488;-70
2024/01/15 08:03:42;;;;;;;1.40;0.30;;;;;;;2.89;93.63;98635.13;5076087;28;20442;-70
2024/01/15 08:06:10;;;;;;;2.00;1.70;;;;;;;2.91;92.95;98634.84;5076256;28;20473;-70
2024/01/15 08:08:38;;;;;;;1.90;0.73;;;;;;;2.90;93.76;98644.75;5076475;28;20449;-71
2024/01/15 08:11:04;;;;;;;1.43;0.30;;;;;;;2.92;92.85;98647.94;5075584;28;20529;-72
2024/01/15 08:13:31;;;;;;;1.50;0.50;;;;;;;2.89;93.52;98643.16;5075995;28;20521;-68
2024/01/15 08:15:58;;;;;;;1.80;0.80;;;;;;;2.95;92.89;98643.84;5075873;28;20441;-69
2024/01/15 08:18:25;;;;;;;1.50;0.43;;;;;;;2.92;92.99;98645.25;5075646;28;20445;-71
2024/01/15 08:20:52;;;;;;;4.60;0.83;;;;;;;2.99;92.54;98631.47;5076137;28;20580;-71
2024/01/15 08:23:21;;;;;;;1.50;0.30;;;;;;;2.95;92.70;98633.16;5075544;28;20489;-71
2024/01/15 08:25:47;;;;;;;1.40;0.30;;;;;;;2.99;91.98;98636.81;5075908;28;20442;-75
2024/01/15 08:28:14;;;;;;;1.47;0.30;;;;;;;3.00;92.38;98652.53;5075408;28;20494;-76
2024/01/15 08:30:41;;;;;;;1.50;0.30;;;;;;;3.01;91.60;98646.13;5075881;28;20469;-75
2024/01/15 08:33:07;;;;;;;1.70;0.53;;;;;;;2.91;93.12;98642.84;5075679;28;20544;-74
2024/01/15 08:35:35;;;;;;;1.50;0.30;;;;;;;2.96;92.87;98658.78;5075542;28;20451;-73
2024/01/15 08:38:01;;;;;;;1.50;0.30;;;;;;;3.06;91.95;98652.47;5075437;28;20456;-68
2024/01/15 08:40:30;;;;;;;1.50;0.40;;;;;;;3.08;92.10;98648.38;5075451;28;20481;-71
2024/01/15 08:42:57;;;;;;;2.37;0.63;;;;;;;3.15;91.45;98642.66;5075057;28;20944;-71
2024/01/15 08:45:24;;;;;;;1.43;0.30;;;;;;;3.12;91.45;98667.31;5075469;28;20448;-71
2024/01/15 08:47:50;;;;;;;1.47;0.30;;;;;;;3.08;92.10;98651.06;5075398;28;20441;-71
2024/01/15 08:50:17;;;;;;;1.47;0.30;;;;;;;3.04;92.48;98668.78;5074998;28;20479;-72
2024/01/15 08:52:43;;;;;;;1.60;0.57;;;;;;;3.03;92.78;98659.19;5075170;28;20482;-71
2024/01/15 08:55:10;;;;;;;1.50;0.40;;;;;;;3.01;93.21;98650.66;5075224;28;20461;-71
2024/01/15 08:57:38;;;;;;;1.50;0.30;;;;;;;3.03;93.13;98653.84;5075050;28;20516;-72
2024/01/15 09:00:08;;;;;;;1.50;0.40;;;;;;;3.05;93.34;98662.34;5075224;28;20528;-71
2024/01/15 09:02:35;;;;;;;1.40;0.30;;;;;;;3.06;93.83;98669.31;5075304;28;20469;-71
2024/01/15 09:05:04;;;;;;;1.47;0.30;;;;;;;3.09;92.72;98674.03;5075411;28;20496;-71
2024/01/15 09:07:30;;;;;;;1.50;0.30;;;;;;;3.07;93.38;98673.56;5075245;28;20544;-71
2024/01/15 09:09:59;;;;;;;1.90;0.90;;;;;;;3.07;93.64;98678.91;5074113;28;20523;-71
2024/01/15 09:12:25;;;;;;;1.47;0.30;;;;;;;3.14;92.71;98665.13;5074600;28;20465;-71
2024/01/15 09:14:53;;;;;;;1.43;0.30;;;;;;;3.06;94.34;98677.31;5074769;28;20448;-71
2024/01/15 09:17:20;;;;;;;1.50;0.40;;;;;;;3.09;92.97;98679.38;5074702;28;20437;-70
2024/01/15 09:19:47;;;;;;;1.50;0.40;;;;;;;3.15;93.30;98694.25;5074840;28;20529;-70
2024/01/15 09:22:14;;;;;;;1.47;0.30;;;;;;;3.18;92.94;98680.25;5074480;28;20571;-71
2024/01/15 09:24:41;;;;;;;1.60;0.60;;;;;;;3.18;92.57;98690.97;5074687;28;20476;-71
2024/01/15 09:27:08;;;;;;;1.47;0.30;;;;;;;3.23;92.48;98692.75;5074509;28;20464;-71
2024/01/15 09:29:36;;;;;;;1.50;0.30;;;;;;;3.27;92.65;98697.19;5074401;28;20485;-71
2024/01/15 09:32:05;;;;;;;1.50;0.40;;;;;;;3.27;92.18;98685.72;5074380;28;20483;-71
2024/01/15 09:34:31;;;;;;;1.50;0.40;;;;;;;3.21;92.95;98677.00;5074686;28;20539;-71
2024/01/15 09:36:59;;;;;;;1.80;0.80;;;;;;;3.18;92.68;98685.63;5074699;28;20472;-71
2024/01/15 09:39:26;;;;;;;1.50;0.30;;;;;;;3.21;92.75;98693.06;5074340;28;20933;-71
2024/01/15 09:41:54;;;;;;;1.50;0.30;;;;;;;3.21;92.19;98693.06;5074489;28;20522;-71
2024/01/15 09:44:21;;;;;;;1.50;0.30;;;;;;;3.26;92.21;98690.25;5073855;28;20871;-71
2024/01/15 09:46:50;;;;;;;2.17;0.40;;;;;;;3.25;92.07;98695.94;5073850;28;20521;-72
2024/01/15 09:49:18;;;;;;;1.40;0.30;;;;;;;3.25;92.65;98698.59;5074244;28;20803;-71
2024/01/15 09:51:45;;;;;;;1.60;0.40;;;;;;;3.22;92.98;98693.84;5074186;28;20502;-69
2024/01/15 09:54:13;;;;;;;2.37;0.80;;;;;;;3.27;92.69;98699.88;5074137;28;20468;-70
2024/01/15 09:56:40;;;;;;;2.83;1.57;;;;;;;3.22;92.20;98704.53;5073963;28;20434;-72
2024/01/15 09:59:07;;;;;;;1.50;0.30;;;;;;;3.25;92.80;98696.72;5073982;28;20441;-72
2024/01/15 10:01:39;;;;;;;1.50;0.30;;;;;;;3.27;92.25;98686.50;5073532;28;20989;-70
2024/01/15 10:04:05;;;;;;;1.50;0.30;;;;;;;3.31;92.33;98685.91;5074073;28;20528;-72
2024/01/15 10:06:34;;;;;;;1.40;0.30;;;;;;;3.33;92.54;98687.19;5073562;28;20532;-74
2024/01/15 10:09:01;;;;;;;1.47;0.30;;;;;;;3.39;92.10;98682.53;5073829;28;20445;-72
2024/01/15 10:11:28;;;;;;;1.47;0.30;;;;;;;3.45;91.56;98667.94;5073655;28;20453;-71
2024/01/15 10:13:57;;;;;;;1.50;0.30;;;;;;;3.44;91.22;98685.09;5073911;28;20528;-72
2024/01/15 10:16:23;;;;;;;1.80;0.50;;;;;;;3.48;91.88;98675.38;5073419;28;20440;-72
2024/01/15 10:18:50;;;;;;;1.50;0.30;;;;;;;3.60;90.34;98678.31;5073857;28;20540;-71
2024/01/15 10:21:17;;;;;;;1.87;0.63;;;;;;;3.65;90.34;98680.09;5073750;28;20572;-71
2024/01/15 10:23:45;;;;;;;1.50;0.40;;;;;;;3.73;90.41;98692.75;5074036;28;20437;-71
2024/01/15 10:26:12;;;;;;;2.50;0.57;;;;;;;3.82;88.84;98668.72;5073559;28;20441;-71
2024/01/15 10:28:39;;;;;;;3.33;0.73;;;;;;;3.74;88.96;98667.56;5073275;28;20928;-72
2024/01/15 10:31:06;;;;;;;2.37;0.67;;;;;;;3.69;89.46;98686.44;5073515;28;20443;-72
2024/01/15 10:33:32;;;;;;;2.00;0.60;;;;;;;3.67;88.94;98678.69;5074038;28;20905;-70
2024/01/15 10:36:01;;;;;;;1.50;0.30;;;;;;;3.59;87.99;98682.09;5073916;28;20512;-71
2024/01/15 10:38:28;;;;;;;1.80;0.67;;;;;;;3.63;89.01;98682.25;5073411;28;20782;-71
2024/01/15 10:40:56;;;;;;;1.60;0.50;;;;;;;3.62;89.73;98681.47;5073153;28;20461;-72
2024/01/15 10:43:23;;;;;;;1.90;0.83;;;;;;;3.67;89.02;98689.38;5073286;28;20468;-71
2024/01/15 10:45:52;;;;;;;1.70;0.60;;;;;;;3.62;88.90;98689.50;5073438;28;20476;-71
2024/01/15 10:48:20;;;;;;;1.50;0.40;;;;;;;3.50;89.67;98694.59;5073713;28;20528;-72
2024/01/15 10:50:47;;;;;;;1.73;0.60;;;;;;;3.57;89.00;98697.66;5073563;28;20461;-71
2024/01/15 10:53:16;;;;;;;1.50;0.30;;;;;;;3.57;87.89;98675.44;5074113;28;20461;-71
2024/01/15 10:55:43;;;;;;;1.50;0.30;;;;;;;3.63;88.35;98675.03;5073494;28;20498;-71
2024/01/15 10:58:11;;;;;;;1.50;0.40;;;;;;;3.63;87.95;98687.63;5073336;28;20446;-71
2024/01/15 11:00:39;;;;;;;1.50;0.30;;;;;;;3.67;87.73;98688.59;5073205;28;20544;-71
2024/01/15 11:03:06;;;;;;;1.60;0.40;;;;;;;3.70;86.87;98683.44;5073650;28;20539;-71
2024/01/15 11:05:35;;;;;;;1.90;0.57;;;;;;;3.66;86.85;98678.97;5073285;28;20480;-72
2024/01/15 11:08:02;;;;;;;3.63;1.17;;;;;;;3.62;87.92;98686.81;5073771;28;20433;-72
2024/01/15 11:10:42;;;;;;;1.50;0.30;;;;;;;3.61;88.63;98685.25;5073192;28;20468;-70
2024/01/15 11:13:14;;;;;;;1.50;0.37;;;;;;;3.57;90.02;98688.84;5073173;28;20548;-70
2024/01/15 11:16:00;;;;;;;1.50;0.30;;;;;;;3.59;89.73;98692.81;5073318;28;20433;-71
2024/01/15 11:18:28;;;;;;;1.43;0.30;;;;;;;3.61;90.38;98685.25;5073986;28;20443;-71
2024/01/15 11:21:27;;;;;;;7.40;0.60;;;;;;;3.58;91.32;98696.53;5073164;28;20422;-71
2024/01/15 11:23:56;;;;;;;1.50;0.30;;;;;;;3.61;92.58;98703.97;5073628;28;20441;-71
2024/01/15 11:26:35;;;;;;;1.60;0.50;;;;;;;3.54;92.94;98719.66;5073082;28;20467;-72
2024/01/15 11:29:05;;;;;;;1.50;0.30;;;;;;;3.50;93.21;98699.97;5073070;28;20418;-70
2024/01/15 11:32:04;;;;;;;1.50;0.30;;;;;;;3.43;94.44;98708.38;5072734;28;20463;-70
2024/01/15 11:34:53;;;;;;;1.50;0.40;;;;;;;3.33;95.44;98707.81;5077361;28;20528;-71
2024/01/15 11:37:20;;;;;;;1.50;0.40;;;;;;;3.22;96.42;98704.53;5076975;28;20494;-71
2024/01/15 11:39:47;;;;;;;1.90;0.40;;;;;;;3.16;97.51;98700.41;5077099;22;20590;-65